Burgtor — V2OR7 — position and weather

sailwx.info

Track history (hours):
 
Tides and Currents Weather Stations Pressure Air Temp Water Temp Dewpoint Dewpoint Depression Visibility Wind Speed Wind Dir Waves Ship Positions

Burgtor

Last reported at 2016-Aug-30 12:16 UTC. Time now 2016-Aug-30 17:04 UTC.
Position N 52°02' E 001°09'.

Length 87 m; draft 5.4 m.

Type: Cargo ship. MMSI: 304665000.

Date/timePositionNaut miles runAvg speedWind from/ knotsBaromVisibWave heightAir tempDewpointWater temp
2016-Aug-30 12:16N 52°02' E 001°09'0 0.0
2016-Aug-30 11:28N 52°02' E 001°09'0 0.0
2016-Aug-30 10:16N 52°02' E 001°09'0 0.0
2016-Aug-30 09:28N 52°02' E 001°09'0 0.0
2016-Aug-30 08:28N 52°02' E 001°09'0 0.0
2016-Aug-30 07:22N 52°02' E 001°09'0 0.0
2016-Aug-30 06:31N 52°02' E 001°09'0 0.0
2016-Aug-30 03:31N 52°02' E 001°09'0 0.0
2016-Aug-30 02:25N 52°02' E 001°09'0 0.0
2016-Aug-30 01:19N 52°02' E 001°09'0 0.0
2016-Aug-30 00:31N 52°02' E 001°09'0 0.0
2016-Aug-29 23:31N 52°02' E 001°09'0 0.0
2016-Aug-29 22:31N 52°02' E 001°09'0 0.0
2016-Aug-29 21:31N 52°02' E 001°09'0 0.0
2016-Aug-29 20:28N 52°02' E 001°09'0 0.0
2016-Aug-29 19:31N 52°02' E 001°09'0 0.0
2016-Aug-29 18:28N 52°02' E 001°09'0 0.0
2016-Aug-29 17:28N 52°02' E 001°09'0 0.0
2016-Aug-29 16:31N 52°02' E 001°09'0 0.0
2016-Aug-29 15:31N 52°02' E 001°09'0 0.0
2016-Aug-29 14:25N 52°02' E 001°09'0 0.0
2016-Aug-29 13:31N 52°02' E 001°09'0 0.0
2016-Aug-29 12:28N 52°02' E 001°09'0 0.0
2016-Aug-29 11:22N 52°02' E 001°09'0 0.0
2016-Aug-29 10:23N 52°02' E 001°09'4 4.6
2016-Aug-29 09:33N 51°60' E 001°14'7 6.6
2016-Aug-29 08:33N 51°56' E 001°23'5 5.5
2016-Aug-29 07:33N 51°57' E 001°31'0 0.0
2016-Aug-29 06:33N 51°57' E 001°31'0 0.0
2016-Aug-29 05:33N 51°57' E 001°31'5 4.6
2016-Aug-29 04:33N 51°53' E 001°34'7 7.0
2016-Aug-29 03:34N 51°51' E 001°44'6 5.8
2016-Aug-29 02:34N 51°46' E 001°48'7 7.3
2016-Aug-29 01:33N 51°38' E 001°48'8 8.0
2016-Aug-29 00:34N 51°30' E 001°47'9 8.6
2016-Aug-28 23:33N 51°22' E 001°45'1010.0
2016-Aug-28 22:34N 51°13' E 001°39'9 8.6
2016-Aug-28 21:33N 51°04' E 001°38'195 8.3
2016-Aug-27 22:12N 49°51' W 003°06'5 7.3
2016-Aug-27 21:33N 49°51' W 003°13'8 7.6
2016-Aug-27 20:33N 49°52' W 003°25'8 7.7
2016-Aug-27 19:33N 49°52' W 003°37'11 8.0
2016-Aug-27 18:11N 49°53' W 003°54'5 8.3
2016-Aug-27 17:33N 49°53' W 004°02'19 8.5
2016-Aug-27 15:22N 49°54' W 004°31'60 6.8
2016-Aug-27 06:32N 50°12' W 006°00'25 8.1
2016-Aug-27 03:29N 50°37' W 006°00'23 7.8
2016-Aug-27 00:33N 50°59' W 005°60'8 7.5
2016-Aug-26 23:31N 51°07' W 006°00'188 7.8
2016-Aug-25 23:33N 54°14' W 005°20'8 8.4
2016-Aug-25 22:33N 54°22' W 005°19'8 7.6
2016-Aug-25 21:34N 54°29' W 005°21'7 7.1
2016-Aug-25 20:33N 54°36' W 005°24'7 6.7
2016-Aug-25 19:33N 54°42' W 005°29'8 7.8
2016-Aug-25 18:31N 54°42' W 005°43'7 0.2
2016-Aug-24 00:25N 54°38' W 005°53'8 8.7
2016-Aug-23 23:33N 54°43' W 005°42'8 8.0
2016-Aug-23 22:33N 54°42' W 005°29'7 7.4
2016-Aug-23 21:33N 54°35' W 005°24'9 9.0
2016-Aug-23 20:33N 54°26' W 005°20'10 9.6
2016-Aug-23 19:33N 54°17' W 005°21'43 8.4
2016-Aug-23 14:27N 53°44' W 006°10'  
Track history (hours):
 
Tides and Currents Weather Stations Pressure Air Temp Water Temp Dewpoint Dewpoint Depression Visibility Wind Speed Wind Dir Waves Ship Positions

Burgtor

Last reported at 2016-Aug-30 12:16 UTC. Time now 2016-Aug-30 17:04 UTC.
Position N 52°02' E 001°09'.

Length 87 m; draft 5.4 m.

Type: Cargo ship. MMSI: 304665000.

Date/timePositionNaut miles runAvg speedWind from/ knotsBaromVisibWave heightAir tempDewpointWater temp
2016-Aug-30 12:16N 52°02' E 001°09'0 0.0
2016-Aug-30 11:28N 52°02' E 001°09'0 0.0
2016-Aug-30 10:16N 52°02' E 001°09'0 0.0
2016-Aug-30 09:28N 52°02' E 001°09'0 0.0
2016-Aug-30 08:28N 52°02' E 001°09'0 0.0
2016-Aug-30 07:22N 52°02' E 001°09'0 0.0
2016-Aug-30 06:31N 52°02' E 001°09'0 0.0
2016-Aug-30 03:31N 52°02' E 001°09'0 0.0
2016-Aug-30 02:25N 52°02' E 001°09'0 0.0
2016-Aug-30 01:19N 52°02' E 001°09'0 0.0
2016-Aug-30 00:31N 52°02' E 001°09'0 0.0
2016-Aug-29 23:31N 52°02' E 001°09'0 0.0
2016-Aug-29 22:31N 52°02' E 001°09'0 0.0
2016-Aug-29 21:31N 52°02' E 001°09'0 0.0
2016-Aug-29 20:28N 52°02' E 001°09'0 0.0
2016-Aug-29 19:31N 52°02' E 001°09'0 0.0
2016-Aug-29 18:28N 52°02' E 001°09'0 0.0
2016-Aug-29 17:28N 52°02' E 001°09'0 0.0
2016-Aug-29 16:31N 52°02' E 001°09'0 0.0
2016-Aug-29 15:31N 52°02' E 001°09'0 0.0
2016-Aug-29 14:25N 52°02' E 001°09'0 0.0
2016-Aug-29 13:31N 52°02' E 001°09'0 0.0
2016-Aug-29 12:28N 52°02' E 001°09'0 0.0
2016-Aug-29 11:22N 52°02' E 001°09'0 0.0
2016-Aug-29 10:23N 52°02' E 001°09'4 4.6
2016-Aug-29 09:33N 51°60' E 001°14'7 6.6
2016-Aug-29 08:33N 51°56' E 001°23'5 5.5
2016-Aug-29 07:33N 51°57' E 001°31'0 0.0
2016-Aug-29 06:33N 51°57' E 001°31'0 0.0
2016-Aug-29 05:33N 51°57' E 001°31'5 4.6
2016-Aug-29 04:33N 51°53' E 001°34'7 7.0
2016-Aug-29 03:34N 51°51' E 001°44'6 5.8
2016-Aug-29 02:34N 51°46' E 001°48'7 7.3
2016-Aug-29 01:33N 51°38' E 001°48'8 8.0
2016-Aug-29 00:34N 51°30' E 001°47'9 8.6
2016-Aug-28 23:33N 51°22' E 001°45'1010.0
2016-Aug-28 22:34N 51°13' E 001°39'9 8.6
2016-Aug-28 21:33N 51°04' E 001°38'195 8.3
2016-Aug-27 22:12N 49°51' W 003°06'5 7.3
2016-Aug-27 21:33N 49°51' W 003°13'8 7.6
2016-Aug-27 20:33N 49°52' W 003°25'8 7.7
2016-Aug-27 19:33N 49°52' W 003°37'11 8.0
2016-Aug-27 18:11N 49°53' W 003°54'5 8.3
2016-Aug-27 17:33N 49°53' W 004°02'19 8.5
2016-Aug-27 15:22N 49°54' W 004°31'60 6.8
2016-Aug-27 06:32N 50°12' W 006°00'25 8.1
2016-Aug-27 03:29N 50°37' W 006°00'23 7.8
2016-Aug-27 00:33N 50°59' W 005°60'8 7.5
2016-Aug-26 23:31N 51°07' W 006°00'188 7.8
2016-Aug-25 23:33N 54°14' W 005°20'8 8.4
2016-Aug-25 22:33N 54°22' W 005°19'8 7.6
2016-Aug-25 21:34N 54°29' W 005°21'7 7.1
2016-Aug-25 20:33N 54°36' W 005°24'7 6.7
2016-Aug-25 19:33N 54°42' W 005°29'8 7.8
2016-Aug-25 18:31N 54°42' W 005°43'7 0.2
2016-Aug-24 00:25N 54°38' W 005°53'8 8.7
2016-Aug-23 23:33N 54°43' W 005°42'8 8.0
2016-Aug-23 22:33N 54°42' W 005°29'7 7.4
2016-Aug-23 21:33N 54°35' W 005°24'9 9.0
2016-Aug-23 20:33N 54°26' W 005°20'10 9.6
2016-Aug-23 19:33N 54°17' W 005°21'43 8.4
2016-Aug-23 14:27N 53°44' W 006°10'  

Dump ship's entire track history